createdAt,value
2018-02-16T00:00:13.096Z,0.38
2018-02-16T00:02:39.108Z,0.43
2018-02-16T00:05:05.081Z,0.39
2018-02-16T00:07:31.156Z,0.34
2018-02-16T00:09:57.156Z,0.26
2018-02-16T00:12:23.212Z,0.25
2018-02-16T00:14:49.282Z,0.25
2018-02-16T00:17:15.332Z,0.25
2018-02-16T00:19:41.320Z,0.25
2018-02-16T00:22:07.396Z,0.25
2018-02-16T00:24:33.410Z,0.31
2018-02-16T00:26:59.472Z,0.31
2018-02-16T00:29:25.506Z,0.29
2018-02-16T00:31:51.560Z,0.28
2018-02-16T00:34:17.608Z,0.20
2018-02-16T00:36:43.670Z,0.28
2018-02-16T00:39:09.740Z,0.27
2018-02-16T00:41:35.777Z,0.25
2018-02-16T00:44:01.785Z,0.24
2018-02-16T00:46:27.804Z,0.21
2018-02-16T00:48:53.808Z,0.20
2018-02-16T00:51:19.857Z,0.23
2018-02-16T00:53:45.843Z,0.26
2018-02-16T00:56:11.897Z,0.25
2018-02-16T00:58:37.957Z,0.22
2018-02-16T01:01:03.949Z,0.24
2018-02-16T01:03:30.026Z,0.22
2018-02-16T01:05:56.033Z,0.24
2018-02-16T01:08:22.079Z,0.26
2018-02-16T01:10:48.105Z,0.26
2018-02-16T01:13:14.106Z,0.36
2018-02-16T01:15:40.137Z,0.34
2018-02-16T01:18:06.126Z,0.31
2018-02-16T01:20:32.195Z,0.31
2018-02-16T01:22:58.174Z,0.31
2018-02-16T01:25:24.113Z,0.28
2018-02-16T01:27:50.154Z,0.31
2018-02-16T01:30:16.102Z,0.42
2018-02-16T01:32:42.185Z,0.41
2018-02-16T01:35:08.252Z,0.52
2018-02-16T01:37:34.669Z,0.44
2018-02-16T01:40:00.688Z,0.41
2018-02-16T01:42:26.716Z,0.46
2018-02-16T01:44:52.892Z,0.43
2018-02-16T01:47:18.913Z,0.42
2018-02-16T01:49:51.756Z,0.35
2018-02-16T01:52:17.787Z,0.36
2018-02-16T01:54:43.830Z,0.31
2018-02-16T01:57:09.808Z,0.33
2018-02-16T01:59:35.793Z,0.32
2018-02-16T02:02:01.842Z,0.32
2018-02-16T02:04:27.854Z,0.37
2018-02-16T02:06:53.877Z,0.38
2018-02-16T02:09:19.871Z,0.37
2018-02-16T02:11:45.912Z,0.38
2018-02-16T02:14:11.896Z,0.40
2018-02-16T02:16:37.945Z,0.39
2018-02-16T02:19:03.949Z,0.36
2018-02-16T02:21:29.996Z,0.35
2018-02-16T02:23:56.093Z,0.33
2018-02-16T02:26:22.116Z,0.31
2018-02-16T02:28:48.280Z,0.29
2018-02-16T02:31:14.272Z,0.29
2018-02-16T02:33:40.297Z,0.27
2018-02-16T02:36:06.294Z,0.25
2018-02-16T02:38:32.278Z,0.23
2018-02-16T02:40:58.289Z,0.22
2018-02-16T02:43:24.269Z,0.21
2018-02-16T02:45:50.238Z,0.20
2018-02-16T02:48:16.261Z,0.21
2018-02-16T02:50:42.299Z,0.24
2018-02-16T02:53:08.267Z,0.24
2018-02-16T02:55:34.308Z,0.26
2018-02-16T02:58:00.297Z,0.26
2018-02-16T03:00:26.354Z,0.24
2018-02-16T03:02:52.362Z,0.29
2018-02-16T03:05:18.413Z,0.30
2018-02-16T03:07:44.437Z,0.30
2018-02-16T03:10:10.401Z,0.32
2018-02-16T03:12:36.409Z,0.46
2018-02-16T03:15:02.547Z,0.62
2018-02-16T03:17:28.489Z,0.64
2018-02-16T03:19:54.573Z,0.51
2018-02-16T03:22:20.588Z,0.47
2018-02-16T03:24:46.568Z,0.47
2018-02-16T03:27:12.571Z,0.54
2018-02-16T03:29:38.549Z,0.68
2018-02-16T03:32:04.565Z,0.70
2018-02-16T03:34:30.581Z,0.63
2018-02-16T03:36:56.616Z,0.51
2018-02-16T03:39:22.684Z,0.47
2018-02-16T03:41:48.688Z,0.52
2018-02-16T03:44:14.681Z,0.41
2018-02-16T03:46:40.645Z,0.42
2018-02-16T03:49:06.704Z,0.51
2018-02-16T03:51:32.681Z,0.45
2018-02-16T03:53:58.729Z,0.35
2018-02-16T03:56:24.824Z,0.30
2018-02-16T03:58:50.781Z,0.22
2018-02-16T04:01:16.796Z,0.23
2018-02-16T04:03:42.821Z,0.25
2018-02-16T04:06:08.845Z,0.31
2018-02-16T04:08:34.828Z,0.30
2018-02-16T04:11:00.880Z,0.29
2018-02-16T04:13:26.860Z,0.26
2018-02-16T04:15:52.896Z,0.29
2018-02-16T04:18:18.890Z,0.36
2018-02-16T04:20:44.918Z,0.40
2018-02-16T04:23:10.916Z,0.46
2018-02-16T04:25:36.870Z,0.58
2018-02-16T04:28:02.921Z,0.58
2018-02-16T04:30:28.917Z,0.64
2018-02-16T04:32:54.945Z,0.72
2018-02-16T04:35:20.943Z,0.58
2018-02-16T04:37:46.989Z,0.64
2018-02-16T04:40:13.016Z,0.81
2018-02-16T04:42:38.968Z,0.77
2018-02-16T04:45:05.061Z,0.70
2018-02-16T04:47:31.067Z,0.62
2018-02-16T04:49:57.085Z,0.50
2018-02-16T04:52:23.104Z,0.49
2018-02-16T04:54:49.117Z,0.46
2018-02-16T04:57:15.122Z,0.45
2018-02-16T04:59:41.152Z,0.47
2018-02-16T05:02:07.148Z,0.44
2018-02-16T05:04:33.212Z,0.40
2018-02-16T05:06:59.239Z,0.41
2018-02-16T05:09:25.197Z,0.42
2018-02-16T05:11:51.201Z,0.39
2018-02-16T05:14:17.220Z,0.37
2018-02-16T05:16:43.224Z,0.32
2018-02-16T05:19:09.192Z,0.33
2018-02-16T05:21:35.181Z,0.35
2018-02-16T05:24:01.200Z,0.45
2018-02-16T05:26:27.168Z,0.67
2018-02-16T05:28:53.136Z,0.75
2018-02-16T05:31:19.112Z,0.65
2018-02-16T05:33:45.164Z,0.52
2018-02-16T05:36:11.137Z,0.44
2018-02-16T05:38:37.155Z,0.40
2018-02-16T05:41:03.158Z,0.43
2018-02-16T05:43:29.184Z,0.43
2018-02-16T05:45:55.236Z,0.42
2018-02-16T05:48:21.222Z,0.38
2018-02-16T05:50:47.244Z,0.41
2018-02-16T05:53:13.236Z,0.34
2018-02-16T05:55:39.264Z,0.38
2018-02-16T05:58:05.297Z,0.36
2018-02-16T06:00:31.344Z,0.37
2018-02-16T06:02:57.352Z,0.42
2018-02-16T06:05:23.372Z,0.41
2018-02-16T06:07:49.369Z,0.40
2018-02-16T06:10:15.369Z,0.61
2018-02-16T06:12:41.363Z,0.71
2018-02-16T06:15:07.444Z,0.69
2018-02-16T06:17:33.464Z,0.56
2018-02-16T06:19:59.484Z,0.56
2018-02-16T06:22:25.498Z,0.48
2018-02-16T06:24:51.501Z,0.44
2018-02-16T06:27:17.482Z,0.48
2018-02-16T06:29:43.559Z,0.46
2018-02-16T06:32:09.576Z,0.49
2018-02-16T06:34:35.584Z,0.51
2018-02-16T06:37:01.598Z,0.48
2018-02-16T06:39:27.649Z,0.49
2018-02-16T06:41:53.653Z,0.52
2018-02-16T06:44:19.633Z,0.57
2018-02-16T06:46:45.669Z,0.61
2018-02-16T06:49:11.713Z,0.62
2018-02-16T06:51:37.725Z,0.78
2018-02-16T06:54:03.806Z,0.72
2018-02-16T06:56:29.824Z,0.78
2018-02-16T06:58:55.865Z,0.82
2018-02-16T07:01:21.900Z,0.78
2018-02-16T07:03:47.961Z,0.69
2018-02-16T07:06:14.052Z,0.73
2018-02-16T07:08:40.145Z,0.66
2018-02-16T07:11:06.164Z,0.73
2018-02-16T07:13:32.194Z,0.77
2018-02-16T07:15:58.202Z,0.79
2018-02-16T07:18:24.197Z,0.85
2018-02-16T07:20:57.221Z,0.92
2018-02-16T07:23:23.334Z,1.06
2018-02-16T07:25:49.340Z,1.06
2018-02-16T07:28:15.373Z,0.90
2018-02-16T07:30:41.380Z,0.78
2018-02-16T07:33:07.402Z,0.81
2018-02-16T07:35:33.381Z,0.86
2018-02-16T07:37:59.468Z,0.90
2018-02-16T07:40:25.467Z,0.92
2018-02-16T07:42:51.512Z,1.11
2018-02-16T07:45:17.500Z,1.16
2018-02-16T07:47:43.452Z,1.17
2018-02-16T07:50:09.441Z,1.10
2018-02-16T07:52:35.465Z,1.18
2018-02-16T07:55:01.537Z,1.22
2018-02-16T07:57:27.493Z,1.23
2018-02-16T07:59:53.464Z,1.16
2018-02-16T08:02:19.481Z,1.19
2018-02-16T08:04:45.497Z,1.29
2018-02-16T08:07:11.524Z,1.31
2018-02-16T08:09:37.542Z,1.19
2018-02-16T08:12:03.578Z,1.15
2018-02-16T08:14:29.595Z,1.13
2018-02-16T08:16:55.722Z,1.16
2018-02-16T08:19:21.695Z,1.33
2018-02-16T08:21:47.704Z,1.37
2018-02-16T08:24:13.732Z,1.25
2018-02-16T08:26:39.776Z,1.49
2018-02-16T08:29:05.769Z,1.38
2018-02-16T08:31:31.848Z,1.61
2018-02-16T08:33:57.864Z,1.60
2018-02-16T08:36:23.904Z,1.75
2018-02-16T08:38:49.961Z,1.68
2018-02-16T08:41:15.953Z,1.87
2018-02-16T08:43:49.021Z,1.87
2018-02-16T08:46:15.064Z,1.76
2018-02-16T08:48:41.016Z,1.88
2018-02-16T08:51:07.072Z,1.90
2018-02-16T08:53:33.097Z,2.03
2018-02-16T08:55:59.091Z,2.02
2018-02-16T08:58:25.110Z,2.11
2018-02-16T09:00:51.144Z,2.22
2018-02-16T09:03:17.205Z,2.14
2018-02-16T09:05:43.186Z,2.37
2018-02-16T09:08:09.214Z,2.45
2018-02-16T09:10:35.229Z,2.50
2018-02-16T09:13:01.309Z,2.49
2018-02-16T09:15:27.320Z,2.48
2018-02-16T09:17:53.361Z,2.50
2018-02-16T09:20:19.483Z,2.33
2018-02-16T09:22:45.508Z,2.40
2018-02-16T09:25:11.554Z,2.32
2018-02-16T09:27:37.517Z,2.37
2018-02-16T09:30:03.725Z,2.34
2018-02-16T09:32:29.693Z,2.33
2018-02-16T09:34:55.853Z,2.41
2018-02-16T09:37:22.768Z,2.04
2018-02-16T09:39:49.642Z,1.83
2018-02-16T09:42:15.702Z,1.72
2018-02-16T09:44:41.761Z,1.82
2018-02-16T09:47:07.783Z,1.86
2018-02-16T09:49:33.717Z,1.82
2018-02-16T09:51:59.681Z,1.84
2018-02-16T09:54:25.711Z,1.80
2018-02-16T09:56:51.723Z,1.79
2018-02-16T09:59:17.784Z,1.70
2018-02-16T10:01:43.798Z,1.70
2018-02-16T10:04:09.829Z,1.69
2018-02-16T10:06:35.864Z,1.90
2018-02-16T10:09:01.946Z,2.14
2018-02-16T10:11:27.941Z,2.04
2018-02-16T10:13:53.929Z,2.29
2018-02-16T10:16:19.988Z,2.10
2018-02-16T10:18:45.978Z,2.33
2018-02-16T10:21:12.008Z,2.57
2018-02-16T10:23:37.992Z,2.65
2018-02-16T10:26:04.041Z,2.77
2018-02-16T10:28:30.052Z,2.62
2018-02-16T10:30:56.088Z,2.68
2018-02-16T10:33:22.129Z,2.85
2018-02-16T10:35:48.164Z,2.75
2018-02-16T10:38:14.269Z,2.98
2018-02-16T10:40:40.320Z,3.16
2018-02-16T10:43:06.296Z,3.10
2018-02-16T10:45:32.272Z,2.82
2018-02-16T10:47:58.400Z,2.75
2018-02-16T10:50:24.421Z,2.60
2018-02-16T10:52:50.380Z,2.66
2018-02-16T10:55:16.406Z,3.02
2018-02-16T10:57:42.422Z,3.24
2018-02-16T11:00:08.561Z,3.19
2018-02-16T11:02:40.630Z,3.18
2018-02-16T11:05:11.596Z,2.83
2018-02-16T11:07:43.828Z,2.96
2018-02-16T11:10:09.904Z,3.11
2018-02-16T11:12:35.897Z,3.45
2018-02-16T11:15:02.134Z,3.60
2018-02-16T11:17:28.232Z,3.68
2018-02-16T11:19:54.292Z,3.73
2018-02-16T11:22:20.402Z,3.71
2018-02-16T11:24:46.352Z,3.62
2018-02-16T11:27:12.437Z,3.50
2018-02-16T11:29:38.381Z,3.46
2018-02-16T11:32:04.400Z,3.44
2018-02-16T11:34:30.453Z,3.45
2018-02-16T11:36:56.681Z,3.66
2018-02-16T11:39:22.698Z,3.68
2018-02-16T11:41:48.650Z,3.52
2018-02-16T11:44:14.643Z,3.46
2018-02-16T11:46:40.708Z,3.38
2018-02-16T11:49:06.760Z,3.25
2018-02-16T11:51:32.836Z,3.20
2018-02-16T11:53:58.912Z,3.24
2018-02-16T11:56:24.923Z,3.25
2018-02-16T11:58:50.925Z,3.32
2018-02-16T12:01:17.266Z,3.27
2018-02-16T12:03:43.285Z,3.44
2018-02-16T12:06:09.261Z,3.43
2018-02-16T12:08:35.285Z,3.40
2018-02-16T12:11:01.334Z,3.41
2018-02-16T12:13:27.389Z,3.32
2018-02-16T12:15:53.408Z,3.32
2018-02-16T12:18:19.421Z,3.24
2018-02-16T12:20:45.440Z,2.87
2018-02-16T12:23:11.429Z,2.96
2018-02-16T12:25:37.408Z,3.35
2018-02-16T12:28:03.431Z,3.60
2018-02-16T12:30:29.400Z,3.60
2018-02-16T12:32:55.439Z,3.58
2018-02-16T12:35:21.457Z,3.62
2018-02-16T12:37:47.470Z,3.43
2018-02-16T12:40:13.434Z,3.23
2018-02-16T12:42:39.482Z,3.24
2018-02-16T12:45:05.505Z,3.32
2018-02-16T12:47:31.550Z,3.33
2018-02-16T12:49:57.580Z,3.45
2018-02-16T12:52:23.553Z,3.46
2018-02-16T12:54:49.576Z,3.50
2018-02-16T12:57:15.577Z,3.45
2018-02-16T12:59:41.604Z,3.26
2018-02-16T13:02:07.619Z,3.30
2018-02-16T13:04:33.644Z,3.04
2018-02-16T13:06:59.739Z,3.02
2018-02-16T13:09:25.738Z,2.83
2018-02-16T13:11:51.711Z,3.15
2018-02-16T13:14:17.690Z,3.28
2018-02-16T13:16:43.697Z,3.59
2018-02-16T13:19:09.739Z,3.47
2018-02-16T13:21:35.784Z,3.89
2018-02-16T13:24:01.812Z,3.99
2018-02-16T13:26:27.852Z,3.61
2018-02-16T13:28:53.872Z,3.95
2018-02-16T13:31:19.909Z,3.95
2018-02-16T13:33:45.910Z,5.62
2018-02-16T13:36:11.993Z,5.38
2018-02-16T13:38:38.003Z,4.72
2018-02-16T13:41:04.020Z,4.58
2018-02-16T13:43:30.072Z,4.59
2018-02-16T13:45:56.066Z,4.16
2018-02-16T13:48:22.139Z,3.90
2018-02-16T13:50:48.180Z,3.74
2018-02-16T13:53:14.172Z,3.83
2018-02-16T13:55:40.194Z,4.11
2018-02-16T13:58:06.209Z,4.13
2018-02-16T14:00:32.241Z,4.02
2018-02-16T14:02:58.429Z,4.12
2018-02-16T14:05:24.524Z,4.22
2018-02-16T14:07:50.552Z,4.58
2018-02-16T14:10:16.570Z,3.88
2018-02-16T14:12:42.624Z,3.37
2018-02-16T14:15:08.619Z,3.27
2018-02-16T14:17:34.620Z,2.88
2018-02-16T14:20:00.689Z,2.92
2018-02-16T14:22:26.670Z,2.88
2018-02-16T14:24:52.703Z,2.85
2018-02-16T14:27:18.688Z,2.96
2018-02-16T14:29:44.700Z,2.89
2018-02-16T14:32:10.709Z,2.80
2018-02-16T14:34:36.756Z,2.78
2018-02-16T14:37:02.756Z,2.58
2018-02-16T14:39:28.799Z,2.57
2018-02-16T14:41:54.844Z,2.69
2018-02-16T14:46:53.684Z,2.67
2018-02-16T14:49:19.733Z,2.68
2018-02-16T14:51:45.783Z,2.90
2018-02-16T14:54:11.786Z,2.95
2018-02-16T14:56:38.253Z,2.79
2018-02-16T14:59:04.273Z,2.87
2018-02-16T15:01:30.315Z,2.92
2018-02-16T15:03:56.338Z,2.88
2018-02-16T15:06:22.315Z,2.78
2018-02-16T15:08:48.361Z,2.79
2018-02-16T15:11:14.348Z,2.63
2018-02-16T15:13:40.544Z,2.64
2018-02-16T15:16:06.428Z,2.59
2018-02-16T15:18:32.464Z,2.63
2018-02-16T15:20:58.482Z,2.62
2018-02-16T15:23:24.533Z,2.61
2018-02-16T15:25:50.539Z,2.60
2018-02-16T15:28:16.636Z,2.60
2018-02-16T15:30:42.602Z,2.43
2018-02-16T15:33:08.559Z,2.37
2018-02-16T15:35:34.597Z,2.38
2018-02-16T15:38:00.613Z,2.42
2018-02-16T15:40:26.605Z,2.41
2018-02-16T15:42:52.661Z,2.41
2018-02-16T15:45:18.745Z,2.42
2018-02-16T15:47:44.754Z,2.34
2018-02-16T15:50:10.809Z,2.29
2018-02-16T15:52:36.938Z,2.28
2018-02-16T15:55:03.062Z,2.33
2018-02-16T15:57:29.128Z,2.29
2018-02-16T15:59:55.156Z,2.35
2018-02-16T16:02:21.204Z,2.30
2018-02-16T16:04:47.253Z,2.29
2018-02-16T16:07:13.236Z,2.30
2018-02-16T16:09:39.317Z,2.28
2018-02-16T16:12:05.322Z,2.27
2018-02-16T16:14:31.376Z,2.25
2018-02-16T16:16:57.415Z,2.35
2018-02-16T16:19:23.419Z,2.33
2018-02-16T16:21:49.456Z,2.30
2018-02-16T16:24:15.484Z,2.29
2018-02-16T16:26:41.673Z,2.27
2018-02-16T16:29:07.703Z,2.31
2018-02-16T16:31:33.716Z,2.18
2018-02-16T16:33:59.786Z,2.17
2018-02-16T16:36:25.808Z,2.10
2018-02-16T16:38:51.857Z,2.04
2018-02-16T16:41:17.860Z,1.96
2018-02-16T16:43:43.840Z,1.84
2018-02-16T16:46:09.846Z,1.90
2018-02-16T16:48:35.847Z,1.92
2018-02-16T16:51:01.987Z,1.81
2018-02-16T16:53:28.009Z,1.81
2018-02-16T16:55:54.025Z,1.95
2018-02-16T16:58:20.080Z,1.99
2018-02-16T17:00:46.144Z,1.90
2018-02-16T17:03:19.256Z,1.93
2018-02-16T17:05:45.283Z,1.83
2018-02-16T17:08:11.313Z,1.70
2018-02-16T17:10:37.316Z,1.57
2018-02-16T17:13:03.510Z,1.60
2018-02-16T17:15:29.491Z,1.44
2018-02-16T17:17:55.525Z,1.48
2018-02-16T17:20:21.566Z,1.49
2018-02-16T17:22:47.493Z,1.66
2018-02-16T17:25:13.502Z,1.62
2018-02-16T17:27:39.514Z,1.58
2018-02-16T17:30:05.525Z,1.60
2018-02-16T17:32:31.561Z,1.60
2018-02-16T17:34:57.553Z,1.55
2018-02-16T17:37:23.584Z,1.32
2018-02-16T17:39:49.606Z,1.26
2018-02-16T17:42:15.660Z,0.91
2018-02-16T17:44:41.705Z,1.01
2018-02-16T17:47:07.714Z,1.14
2018-02-16T17:49:33.762Z,1.05
2018-02-16T17:51:59.713Z,0.99
2018-02-16T17:54:25.756Z,0.95
2018-02-16T17:56:51.770Z,1.02
2018-02-16T17:59:17.808Z,1.03
2018-02-16T18:01:43.848Z,1.00
2018-02-16T18:04:09.861Z,0.86
2018-02-16T18:06:35.884Z,0.94
2018-02-16T18:09:01.987Z,1.05
2018-02-16T18:11:28.060Z,1.15
2018-02-16T18:13:54.071Z,1.14
2018-02-16T18:16:20.389Z,1.11
2018-02-16T18:18:46.385Z,1.18
2018-02-16T18:21:12.400Z,1.17
2018-02-16T18:23:38.448Z,1.03
2018-02-16T18:26:04.534Z,0.98
2018-02-16T18:28:30.597Z,0.93
2018-02-16T18:30:56.649Z,0.83
2018-02-16T18:33:22.788Z,0.83
2018-02-16T18:35:48.841Z,0.82
2018-02-16T18:38:14.858Z,0.89
2018-02-16T18:40:40.857Z,0.99
2018-02-16T18:43:06.881Z,1.35
2018-02-16T18:45:32.937Z,1.31
2018-02-16T18:47:58.926Z,1.29
2018-02-16T18:50:24.956Z,1.04
2018-02-16T18:52:51.001Z,0.96
2018-02-16T18:55:17.049Z,0.96
2018-02-16T18:57:43.099Z,0.96
2018-02-16T19:00:09.117Z,0.91
2018-02-16T19:02:35.154Z,0.78
2018-02-16T19:05:01.210Z,0.71
2018-02-16T19:07:27.223Z,0.65
2018-02-16T19:09:53.231Z,0.64
2018-02-16T19:12:19.225Z,0.57
2018-02-16T19:14:45.208Z,0.53
2018-02-16T19:17:11.200Z,0.49
2018-02-16T19:19:37.436Z,0.39
2018-02-16T19:22:03.417Z,0.34
2018-02-16T19:24:29.488Z,0.33
2018-02-16T19:26:55.514Z,0.34
2018-02-16T19:29:21.532Z,0.24
2018-02-16T19:31:47.641Z,0.24
2018-02-16T19:34:13.669Z,0.19
2018-02-16T19:36:39.638Z,0.17
2018-02-16T19:39:05.637Z,0.13
2018-02-16T19:41:31.664Z,0.18
2018-02-16T19:43:57.701Z,0.17
2018-02-16T19:46:23.718Z,0.18
2018-02-16T19:48:50.127Z,0.12
2018-02-16T19:51:16.270Z,0.02
2018-02-16T19:53:42.398Z,-0.08
2018-02-16T19:56:08.596Z,-0.13
2018-02-16T19:58:34.663Z,-0.03
2018-02-16T20:01:00.741Z,0.13
2018-02-16T20:03:26.739Z,0.18
2018-02-16T20:05:52.746Z,0.16
2018-02-16T20:08:18.876Z,0.02
2018-02-16T20:10:44.881Z,-0.07
2018-02-16T20:13:11.090Z,-0.10
2018-02-16T20:15:37.124Z,-0.09
2018-02-16T20:18:03.223Z,-0.09
2018-02-16T20:20:29.272Z,-0.11
2018-02-16T20:22:55.348Z,-0.13
2018-02-16T20:25:21.419Z,-0.11
2018-02-16T20:27:47.458Z,-0.16
2018-02-16T20:30:13.582Z,-0.15
2018-02-16T20:32:39.587Z,-0.21
2018-02-16T20:35:05.641Z,-0.22
2018-02-16T20:37:31.968Z,-0.22
2018-02-16T20:40:00.278Z,-0.27
2018-02-16T20:42:26.408Z,-0.36
2018-02-16T20:44:53.319Z,-0.32
2018-02-16T20:47:19.392Z,-0.35
2018-02-16T20:49:45.492Z,-0.44
2018-02-16T20:52:11.555Z,-0.50
2018-02-16T20:54:37.660Z,-0.56
2018-02-16T20:57:03.828Z,-0.56
2018-02-16T20:59:29.824Z,-0.52
2018-02-16T21:01:55.892Z,-0.53
2018-02-16T21:04:21.918Z,-0.54
2018-02-16T21:06:48.003Z,-0.67
2018-02-16T21:09:14.114Z,-0.67
2018-02-16T21:11:40.204Z,-0.69
2018-02-16T21:14:06.291Z,-0.71
2018-02-16T21:16:32.347Z,-0.70
2018-02-16T21:18:58.425Z,-0.79
2018-02-16T21:21:24.432Z,-0.85
2018-02-16T21:23:50.511Z,-0.84
2018-02-16T21:26:16.772Z,-0.98
2018-02-16T21:28:43.189Z,-0.99
2018-02-16T21:31:09.310Z,-0.98
2018-02-16T21:33:35.347Z,-0.90
2018-02-16T21:36:01.657Z,-0.93
2018-02-16T21:38:27.751Z,-0.90
2018-02-16T21:40:53.803Z,-0.95
2018-02-16T21:43:19.830Z,-0.85
2018-02-16T21:45:45.910Z,-0.87
2018-02-16T21:48:12.175Z,-0.92
2018-02-16T21:50:38.202Z,-1.22
2018-02-16T21:53:04.266Z,-1.35
2018-02-16T21:55:30.312Z,-1.32
2018-02-16T21:57:56.353Z,-1.48
2018-02-16T22:00:22.475Z,-1.38
2018-02-16T22:02:48.613Z,-1.27
2018-02-16T22:05:14.637Z,-1.25
2018-02-16T22:07:40.753Z,-1.12
2018-02-16T22:10:07.088Z,-0.96
2018-02-16T22:12:33.181Z,-0.95
2018-02-16T22:14:59.313Z,-1.14
2018-02-16T22:17:25.342Z,-1.13
2018-02-16T22:19:51.377Z,-1.31
2018-02-16T22:22:17.500Z,-1.38
2018-02-16T22:24:43.557Z,-1.35
2018-02-16T22:27:09.917Z,-1.41
2018-02-16T22:29:35.937Z,-1.42
2018-02-16T22:32:01.997Z,-1.48
2018-02-16T22:34:28.122Z,-1.61
2018-02-16T22:36:54.198Z,-1.85
2018-02-16T22:42:12.986Z,-2.12
2018-02-16T22:44:38.968Z,-2.08
2018-02-16T22:47:05.026Z,-2.03
2018-02-16T22:49:31.065Z,-2.02
2018-02-16T22:51:57.142Z,-1.92
2018-02-16T22:54:23.311Z,-2.16
2018-02-16T22:56:49.458Z,-2.01
2018-02-16T22:59:15.510Z,-1.86
2018-02-16T23:01:41.529Z,-1.80
2018-02-16T23:04:07.562Z,-1.75
2018-02-16T23:06:33.584Z,-1.94
2018-02-16T23:08:59.608Z,-1.98
2018-02-16T23:11:25.625Z,-2.14
2018-02-16T23:13:51.616Z,-2.05
2018-02-16T23:16:17.904Z,-1.88
2018-02-16T23:18:43.934Z,-1.90
2018-02-16T23:21:10.124Z,-2.02
2018-02-16T23:23:36.181Z,-2.19
2018-02-16T23:26:02.226Z,-2.21
2018-02-16T23:28:28.249Z,-2.22
2018-02-16T23:30:54.483Z,-2.28
2018-02-16T23:33:20.498Z,-2.35
2018-02-16T23:35:46.855Z,-2.44
2018-02-16T23:38:12.890Z,-2.47
2018-02-16T23:40:38.917Z,-2.61
2018-02-16T23:43:05.102Z,-2.63
2018-02-16T23:45:31.601Z,-2.76
2018-02-16T23:47:57.717Z,-2.78
2018-02-16T23:50:23.824Z,-2.82
2018-02-16T23:52:49.874Z,-2.76
2018-02-16T23:55:15.905Z,-2.72
2018-02-16T23:57:41.980Z,-2.80
